Terminal Aerodrome Forecast
Issued by NWS

Home | Current Version | Previous Version | Text Only | Print | Product List | Glossary On
Versions: 1 2 3 4 5 6 7 8 9 10 11 12 13 14 15 16 17
000
FTUS43 KLSX 260500
TAFUIN
TAF
KUIN 260520Z 2606/2706 17003KT P6SM SKC
      TEMPO 2610/2613 5SM BR
     FM261500 30005KT P6SM FEW040
     FM262000 05005KT P6SM VCTS SCT050CB
     FM270100 09004KT P6SM FEW050 SCT250=

USA.gov is the U.S. government's official web portal to all federal, state and local government web resources and services.